aviador You're here:

UHWW Decoded Metar

VLADIVOSTOK in RUSSIA
Report Time2018-05-25 20:30:00
UTC Time2018-05-25 20:43:41
Flight Rules vfr VFR
Wind030° at 2 kt
W.Decomp.*RWY 07: 1.7 kt HW 1 kt LCW
W.Rank030° ranks 17
Current wind is below 030° avg. (5.5)
Visibility9999 m
Phenomena:N/A
Clouds:N/A
CeilingNone
Temp05°C (ISA -9)
Dew Point05°C (100% RH)
AAT3.2°C
QNH1012 hPa
Density Alt-305 ft
Elevation604 ft
Report Wrong Elevation
Raw Report
METAR UHWW 252030Z 03001MPS 9999 NSC 05/05 Q1012 R25L/0///70 NOSIG
RMK QFE758=

Extra information for UHWW:More info

Metar Taf Metar & Taf Last 4 Metars F.Rules Stats Wind Profile Meteogram Temp Stats Airport Information Weather charts Add Link Nearby VenuesMetar ALERT Operation Metar Decoded Social comments